EPKK/KRK METAR and TAF weather

Enter ICAO airport designator
Station Type Date Time Source
EPKK METAR 2020/07/10 17:00 UTC NOAA

EPKK 101700Z 22010KT CAVOK 29/14 Q1011


Station Type Date Time Source
EPKK Decoded METAR 2020/07/10 17:00 UTC NOAA

Krakow, Poland (EPKK) 50-05N 019-48E 237M
Jul 10, 2020 - 01:00 PM EDT / 2020.07.10 1700 UTC
Wind: from the SW (220 degrees) at 12 MPH (10 KT):0
Visibility: greater than 7 mile(s):0
Temperature: 84 F (29 C)
Dew Point: 57 F (14 C)
Relative Humidity: 39%
Pressure (altimeter): 29.85 in. Hg (1011 hPa)
ob: EPKK 101700Z 22010KT CAVOK 29/14 Q1011
cycle: 17

Station Type Date Time Source
EPKK TAF 2020/07/10 15:36 UTC NOAA

TAF EPKK 101430Z 1015/1115 22013KT CAVOK
TEMPO 1015/1017 22016G26KT
BECMG 1017/1019 VRB02KT
BECMG 1106/1109 36010KT
TEMPO 1106/1115 SHRA BKN020CB PROB40
TEMPO 1109/1115 VRB15G35KT 3000 TSRAGR BKN014CB

Example: see airport list